This is the latest recevied weather packets stored in our database for station/object 9M4RBN-3. If no packets are shown the sender has not sent any weather packets the latest 10 day(s).
| Time | Temp. | Humidity | Pressure | Rain* | Wind** | Luminosity | Snow |
|---|---|---|---|---|---|---|---|
| 1787962749 | 25° C | 74% | 1017.2 hPa | - | - | - | - |
| 1787961849 | 24.44° C | 72% | 1017.1 hPa | - | - | - | - |
| 1787960949 | 23.89° C | 54% | 1017 hPa | - | - | - | - |
| 1787960049 | 24.44° C | 49% | 1016.7 hPa | - | - | - | - |
| 1787959149 | 25° C | 52% | 1016.4 hPa | - | - | - | - |
| 1787958249 | 25.56° C | 58% | 1016.4 hPa | - | - | - | - |
| 1787957349 | 25.56° C | 76% | 1016.3 hPa | - | - | - | - |
| 1787956449 | 25.56° C | 74% | 1016.2 hPa | - | - | - | - |
| 1787955549 | 25° C | 69% | 1016.2 hPa | - | - | - | - |
| 1787954649 | 23.89° C | 48% | 1016.2 hPa | - | - | - | - |
| 1787953749 | 23.89° C | 48% | 1016 hPa | - | - | - | - |
| 1787952849 | 24.44° C | 48% | 1015.9 hPa | - | - | - | - |
| 1787951949 | 25° C | 48% | 1015.8 hPa | - | - | - | - |
| 1787951049 | 25° C | 48% | 1015.8 hPa | - | - | - | - |
| 1787950149 | 25.56° C | 49% | 1015.9 hPa | - | - | - | - |
| 1787949249 | 26.11° C | 51% | 1015.8 hPa | - | - | - | - |
| 1787948348 | 27.22° C | 60% | 1015.8 hPa | - | - | - | - |
| 1787947448 | 27.78° C | 72% | 1015.7 hPa | - | - | - | - |
| 1787946548 | 27.78° C | 72% | 1015.9 hPa | - | - | - | - |
| 1787945648 | 27.78° C | 71% | 1015.8 hPa | - | - | - | - |
| 1787944748 | 27.78° C | 71% | 1015.9 hPa | - | - | - | - |
| 1787943848 | 27.78° C | 71% | 1016.1 hPa | - | - | - | - |
| 1787942948 | 27.78° C | 70% | 1016.1 hPa | - | - | - | - |
| 1787942048 | 27.78° C | 70% | 1016.2 hPa | - | - | - | - |
| 1787941148 | 27.78° C | 70% | 1016.4 hPa | - | - | - | - |
* Rain since midnight (hover to see other rain measurements)
** Current wind speed in m/s (hover to see current wind gust speed)